Terminal Aerodrome Forecast
Issued by NWS Omaha/Valley, NE

Home | Current Version | Previous Version | Graphics & Text | Print | Product List | Glossary On
Versions: 1 2 3 4 5 6 7 8 9 10 11 12 13 14 15 16 17 18 19 20 21 22
000
FTUS43 KOAX 131721
TAFOFK
TAF
KOFK 131721Z 1318/1418 36025G34KT 4SM -RA BR OVC010
      TEMPO 1318/1320 3SM -RA BR OVC008
     FM132000 35025G33KT 3SM -RASN OVC008
      TEMPO 1320/1324 3/4SM -SN BR OVC005
     FM140100 35022G30KT P6SM SCT008 OVC020
     FM140600 34020G26KT P6SM SCT020 BKN150=

USA.gov is the U.S. government's official web portal to all federal, state and local government web resources and services.